Thunder radar more information blitzortung!


Radar de pluja more information rain snow radar


Visita la nostra xarxa de llocs de meteo:

Template documentation
and downloads

And another site



No particular awareness of the weather is required.    There are no Weather-warnings

Pagina Historial Weather Underground text

Diari Resum February 14, 2016 Unitats:  Mètric    Imperial   Tant
« Previous Dia
SegĂźent Dia »
Diari Setmana Mensual Anual Personalitzada
  Maxima: Minima: Media:
Temperatura: 17.8 °C 8.7 °C 12.3 °C
Punt de rosada: 3.7 °C 0.4 °C 1.4 °C
Humitat: 63 % 35 % 48 %
Wind Speed: 16.7 km/h 0.0 km/h 6.5 km/h
RĂ fegues de vent: 16.7 km/h - -
Vent:- - SW
Pression baro: 998.9 hPa 994.8 hPa -
Precipitacions: 0.0 mm    
Historical Graphs
 
 
Dades de taula per February 14, 2016
Temps Temperatura Punt de rosada Pression baro Vent Wind Speed RĂ fegues de vent Humitat Rainfall Rate (Hourly)
14:14 16.4 °C 2.8 °C 995.8 hPa NW 7.4 km/h 9.7 km/h 40 % 0.0 mm
14:19 16.4 °C 2.8 °C 995.8 hPa SSW 16.7 km/h 16.7 km/h 40 % 0.0 mm
14:24 16.0 °C 2.4 °C 995.8 hPa WSW 13.0 km/h 13.0 km/h 40 % 0.0 mm
14:29 16.1 °C 2.5 °C 995.8 hPa West 10.3 km/h 10.3 km/h 40 % 0.0 mm
14:39 16.1 °C 2.1 °C 994.8 hPa WSW 13.0 km/h 13.0 km/h 39 % 0.0 mm
14:44 16.3 °C 2.7 °C 994.8 hPa SW 6.9 km/h 6.9 km/h 40 % 0.0 mm
14:49 16.6 °C 2.9 °C 994.8 hPa NNE 11.9 km/h 11.9 km/h 40 % 0.0 mm
14:54 16.5 °C 2.8 °C 994.8 hPa SW 6.1 km/h 6.1 km/h 40 % 0.0 mm
14:59 17.0 °C 2.9 °C 994.8 hPa SE 7.4 km/h 7.4 km/h 39 % 0.0 mm
15:04 17.0 °C 2.9 °C 994.8 hPa SSW 9.0 km/h 9.0 km/h 39 % 0.0 mm
15:09 17.1 °C 3.0 °C 995.8 hPa NE 3.2 km/h 3.2 km/h 39 % 0.0 mm
15:14 17.4 °C 2.9 °C 995.8 hPa WSW 7.4 km/h 7.4 km/h 38 % 0.0 mm
15:19 17.8 °C 3.7 °C 995.8 hPa SW 1.9 km/h   39 % 0.0 mm
15:24 17.7 °C 3.2 °C 995.8 hPa WSW 7.4 km/h 7.4 km/h 38 % 0.0 mm
15:29 16.7 °C 1.9 °C 995.8 hPa West 5.6 km/h 5.6 km/h 37 % 0.0 mm
15:34 16.5 °C 1.7 °C 995.8 hPa SW 1.9 km/h   37 % 0.0 mm
15:39 16.7 °C 1.9 °C 996.8 hPa SW 3.7 km/h 3.7 km/h 37 % 0.0 mm
15:49 16.7 °C 1.9 °C 996.8 hPa NNW 7.4 km/h 7.4 km/h 37 % 0.0 mm
15:54 17.7 °C 2.4 °C 996.8 hPa SW 7.9 km/h 7.9 km/h 36 % 0.0 mm
15:59 17.2 °C 1.6 °C 996.8 hPa West 7.6 km/h 7.6 km/h 35 % 0.0 mm
16:04 16.5 °C 0.9 °C 996.8 hPa WSW 5.6 km/h 5.6 km/h 35 % 0.0 mm
16:09 16.5 °C 0.9 °C 996.8 hPa WNW 7.9 km/h 7.9 km/h 35 % 0.0 mm
16:14 16.5 °C 0.9 °C 996.8 hPa West 5.6 km/h 5.6 km/h 35 % 0.0 mm
16:19 15.6 °C 0.6 °C 996.8 hPa WSW 7.4 km/h 7.4 km/h 36 % 0.0 mm
16:24 15.3 °C 0.7 °C 996.8 hPa SW 9.3 km/h 9.3 km/h 37 % 0.0 mm
16:29 15.2 °C 0.6 °C 996.8 hPa West 5.6 km/h 5.8 km/h 37 % 0.0 mm
16:34 15.0 °C 0.4 °C 996.8 hPa WSW 7.4 km/h 7.4 km/h 37 % 0.0 mm
16:39 15.0 °C 0.4 °C 997.9 hPa West 7.9 km/h 7.9 km/h 37 % 0.0 mm
16:44 14.7 °C 0.9 °C 997.9 hPa WSW 5.6 km/h 5.6 km/h 39 % 0.0 mm
16:49 14.6 °C 0.8 °C 997.9 hPa WSW 3.7 km/h 3.7 km/h 39 % 0.0 mm
16:54 14.5 °C 0.7 °C 997.9 hPa West 5.6 km/h 5.6 km/h 39 % 0.0 mm
16:59 14.4 °C 0.9 °C 997.9 hPa SSW 7.4 km/h 7.4 km/h 40 % 0.0 mm
17:04 14.2 °C 0.8 °C 997.9 hPa WNW 7.4 km/h 7.4 km/h 40 % 0.0 mm
17:09 14.1 °C 1.1 °C 997.9 hPa WSW 9.3 km/h 9.3 km/h 41 % 0.0 mm
17:14 14.0 °C 0.9 °C 997.9 hPa SW 7.4 km/h 7.4 km/h 41 % 0.0 mm
17:19 13.9 °C 0.8 °C 997.9 hPa WSW 13.0 km/h 13.0 km/h 41 % 0.0 mm
17:24 13.8 °C 0.8 °C 996.8 hPa SSE 11.1 km/h 11.1 km/h 41 % 0.0 mm
17:29 13.6 °C 0.9 °C 996.8 hPa WNW 9.3 km/h 9.3 km/h 42 % 0.0 mm
17:34 13.5 °C 0.8 °C 996.8 hPa SW 6.4 km/h 6.4 km/h 42 % 0.0 mm
17:39 13.4 °C 1.1 °C 996.8 hPa West 5.6 km/h 5.6 km/h 43 % 0.0 mm
17:44 13.3 °C 0.9 °C 996.8 hPa West 13.7 km/h 13.7 km/h 43 % 0.0 mm
17:49 13.1 °C 0.8 °C 996.8 hPa WNW 7.4 km/h 7.4 km/h 43 % 0.0 mm
17:54 12.9 °C 0.6 °C 997.9 hPa WSW 7.4 km/h 7.4 km/h 43 % 0.0 mm
17:59 12.6 °C 0.7 °C 997.9 hPa West 9.3 km/h 9.3 km/h 44 % 0.0 mm
18:04 12.5 °C 0.9 °C 997.9 hPa ESE 9.3 km/h 9.3 km/h 45 % 0.0 mm
18:14 12.1 °C 0.8 °C 997.9 hPa WSW 9.3 km/h 9.3 km/h 46 % 0.0 mm
18:19 11.9 °C 0.9 °C 997.9 hPa SW 5.6 km/h 5.6 km/h 47 % 0.0 mm
18:24 11.7 °C 1.1 °C 997.9 hPa SW 9.3 km/h 9.3 km/h 48 % 0.0 mm
18:29 11.5 °C 0.8 °C 997.9 hPa WSW 5.6 km/h 5.6 km/h 48 % 0.0 mm
18:34 11.4 °C 1.1 °C 997.9 hPa WNW 5.6 km/h 5.6 km/h 49 % 0.0 mm
18:39 11.3 °C 1.2 °C 997.9 hPa WSW 5.6 km/h 5.6 km/h 50 % 0.0 mm
18:44 11.2 °C 1.2 °C 997.9 hPa SW 9.3 km/h 9.3 km/h 50 % 0.0 mm
18:49 11.1 °C 1.1 °C 997.9 hPa SW 3.7 km/h 3.7 km/h 50 % 0.0 mm
18:54 11.0 °C 1.2 °C 997.9 hPa West 3.7 km/h 3.7 km/h 51 % 0.0 mm
18:59 11.0 °C 1.2 °C 997.9 hPa WNW 5.6 km/h 5.6 km/h 51 % 0.0 mm
19:04 10.9 °C 1.2 °C 997.9 hPa NNE 3.7 km/h 3.7 km/h 51 % 0.0 mm
19:09 10.8 °C 1.3 °C 997.9 hPa WNW 3.7 km/h 3.7 km/h 52 % 0.0 mm
19:14 10.8 °C 1.3 °C 997.9 hPa NW 1.9 km/h   52 % 0.0 mm
19:19 10.8 °C 1.3 °C 997.9 hPa WSW 1.9 km/h 2.3 km/h 52 % 0.0 mm
19:24 10.7 °C 1.2 °C 998.9 hPa West 5.6 km/h 5.6 km/h 52 % 0.0 mm
19:29 10.6 °C 1.2 °C 998.9 hPa West 3.7 km/h 3.7 km/h 52 % 0.0 mm
19:34 10.6 °C 1.2 °C 998.9 hPa WSW 4.7 km/h 4.7 km/h 52 % 0.0 mm
19:44 10.5 °C 1.3 °C 998.9 hPa WNW 7.4 km/h 7.4 km/h 53 % 0.0 mm
19:54 10.4 °C 1.5 °C 997.9 hPa West 11.1 km/h 11.1 km/h 54 % 0.0 mm
19:59 10.3 °C 1.4 °C 997.9 hPa West 9.3 km/h 9.3 km/h 54 % 0.0 mm
20:04 10.2 °C 1.3 °C 997.9 hPa West 7.4 km/h 7.4 km/h 54 % 0.0 mm
20:09 10.2 °C 1.3 °C 997.9 hPa West 9.5 km/h 9.5 km/h 54 % 0.0 mm
20:14 10.1 °C 1.2 °C 997.9 hPa WSW 9.3 km/h 9.3 km/h 54 % 0.0 mm
20:19 10.0 °C 1.1 °C 997.9 hPa NW 6.1 km/h 6.1 km/h 54 % 0.0 mm
20:24 10.0 °C 1.1 °C 997.9 hPa WSW 9.3 km/h 9.3 km/h 54 % 0.0 mm
20:29 9.9 °C 1.0 °C 997.9 hPa SW 14.8 km/h 14.8 km/h 54 % 0.0 mm
20:34 9.8 °C 0.9 °C 997.9 hPa WNW 9.3 km/h 9.3 km/h 54 % 0.0 mm
20:39 9.7 °C 0.8 °C 997.9 hPa West 9.7 km/h 9.7 km/h 54 % 0.0 mm
20:44 9.7 °C 0.8 °C 997.9 hPa West 9.3 km/h 9.3 km/h 54 % 0.0 mm
20:49 9.6 °C 0.7 °C 997.9 hPa NNE 11.1 km/h 11.1 km/h 54 % 0.0 mm
20:54 9.5 °C 0.7 °C 997.9 hPa SW 10.3 km/h 10.3 km/h 54 % 0.0 mm
20:59 9.5 °C 0.9 °C 997.9 hPa WSW 13.7 km/h 13.7 km/h 55 % 0.0 mm
21:04 9.4 °C 1.1 °C 997.9 hPa NNW 9.3 km/h 9.3 km/h 56 % 0.0 mm
21:09 9.4 °C 1.1 °C 996.8 hPa WSW 9.7 km/h 9.7 km/h 56 % 0.0 mm
21:14 9.4 °C 1.1 °C 996.8 hPa WSW 7.4 km/h 7.4 km/h 56 % 0.0 mm
21:19 9.3 °C 0.9 °C 996.8 hPa SSW 7.6 km/h 7.6 km/h 56 % 0.0 mm
21:24 9.3 °C 0.9 °C 997.9 hPa WSW 3.7 km/h 3.7 km/h 56 % 0.0 mm
21:29 9.2 °C 1.1 °C 997.9 hPa West 7.4 km/h 7.4 km/h 57 % 0.0 mm
21:34 9.2 °C 1.1 °C 997.9 hPa WNW 1.9 km/h   57 % 0.0 mm
21:39 9.2 °C 1.1 °C 997.9 hPa WSW 2.6 km/h 2.6 km/h 57 % 0.0 mm
21:44 9.2 °C 1.1 °C 997.9 hPa WSW 3.7 km/h 3.9 km/h 57 % 0.0 mm
21:49 9.2 °C 1.1 °C 997.9 hPa WSW 3.7 km/h 3.7 km/h 57 % 0.0 mm
21:54 9.2 °C 1.3 °C 997.9 hPa WSW 3.7 km/h 3.7 km/h 58 % 0.0 mm
21:59 9.2 °C 1.3 °C 997.9 hPa West 3.9 km/h   58 % 0.0 mm
22:04 9.2 °C 1.3 °C 997.9 hPa NNE 3.9 km/h 3.9 km/h 58 % 0.0 mm
22:09 9.2 °C 1.3 °C 997.9 hPa NE 5.6 km/h 5.6 km/h 58 % 0.0 mm
22:14 9.2 °C 1.3 °C 997.9 hPa ENE 3.7 km/h 3.7 km/h 58 % 0.0 mm
22:19 9.2 °C 1.3 °C 997.9 hPa NNE 1.9 km/h   58 % 0.0 mm
22:24 9.2 °C 1.3 °C 997.9 hPa NNE 1.9 km/h 1.9 km/h 58 % 0.0 mm
22:29 9.2 °C 1.3 °C 997.9 hPa Calm     58 % 0.0 mm
22:34 9.2 °C 1.3 °C 996.8 hPa ENE 3.2 km/h 3.2 km/h 58 % 0.0 mm
22:39 9.2 °C 1.3 °C 996.8 hPa NE 2.6 km/h 2.6 km/h 58 % 0.0 mm
22:44 9.2 °C 1.3 °C 996.8 hPa NE 3.9 km/h 3.9 km/h 58 % 0.0 mm
22:49 9.2 °C 1.3 °C 996.8 hPa NE 1.9 km/h 1.9 km/h 58 % 0.0 mm
22:54 9.2 °C 1.3 °C 997.9 hPa NNE 1.9 km/h 1.9 km/h 58 % 0.0 mm
22:59 9.2 °C 1.6 °C 997.9 hPa North 1.9 km/h   59 % 0.0 mm
23:04 9.1 °C 1.7 °C 997.9 hPa Calm     60 % 0.0 mm
23:09 8.9 °C 1.8 °C 998.9 hPa Calm     61 % 0.0 mm
23:14 8.8 °C 1.7 °C 998.9 hPa Calm     61 % 0.0 mm
23:19 8.7 °C 1.8 °C 998.9 hPa Calm     62 % 0.0 mm
23:24 8.7 °C 2.1 °C 998.9 hPa NNE 3.7 km/h 3.7 km/h 63 % 0.0 mm
Meteo Sesrovires
Elogis d' Weather Underground - 3 mb

Guio original per  Jim McMurry - jmcmurry@mwt.net Adaptat per a la plantilla per  Wim van der Kuil - Leuven-Template.eu

Trobareu la nostra informacio del temps tambe a:

Weather Underground

AWEKAS